Time;durP1;ratioP1;P1;durP2;ratioP2;P2;SDS_P1;SDS_P2;PMS_P1;PMS_P2;Temp;Humidity;BMP_temperature;BMP_pressure;BME280_temperature;BME280_humidity;BME280_pressure;Samples;Min_cycle;Max_cycle;Signal;HPM_P1;HPM_P2
2023/11/20 00:01:22;;;;;;;;;64.33;52.00;;;;;4.26;100.00;99279.88;6310820;20;2878452;-39
2023/11/20 00:03:52;;;;;;;;;64.00;53.00;;;;;4.55;100.00;99283.06;6308426;20;2861815;-39
2023/11/20 00:06:21;;;;;;;;;64.00;53.00;;;;;4.59;100.00;99297.97;6310495;20;2865994;-39
2023/11/20 00:08:51;;;;;;;;;68.67;54.00;;;;;4.30;100.00;99275.31;6278388;20;3628448;-39
2023/11/20 00:11:20;;;;;;;;;62.50;50.50;;;;;4.35;100.00;99282.16;6310159;20;2859692;-39
2023/11/20 00:13:49;;;;;;;;;64.67;50.00;;;;;4.46;100.00;99273.72;6279668;20;2873174;-38
2023/11/20 00:16:18;;;;;;;;;64.00;52.00;;;;;4.22;100.00;99265.00;6309120;20;2862786;-39
2023/11/20 00:18:47;;;;;;;;;64.00;51.00;;;;;4.48;100.00;99273.66;6279076;20;2861711;-38
2023/11/20 00:21:17;;;;;;;;;67.33;52.33;;;;;4.92;100.00;99286.78;6278922;20;2863902;-38
2023/11/20 00:23:46;;;;;;;;;63.00;53.00;;;;;4.60;100.00;99289.91;6310156;20;2865931;-39
2023/11/20 00:26:15;;;;;;;;;58.50;47.00;;;;;5.01;100.00;99291.69;6279267;20;2864897;-38
2023/11/20 00:28:45;;;;;;;;;66.33;50.00;;;;;4.65;100.00;99289.72;6279190;20;3627455;-38
2023/11/20 00:31:16;;;;;;;;;62.00;52.00;;;;;5.07;100.00;99294.06;6307206;20;2500416;-38
2023/11/20 00:33:46;;;;;;;;;66.33;50.33;;;;;4.78;100.00;99296.22;6278644;20;3620102;-39
2023/11/20 00:36:16;;;;;;;;;70.00;51.00;;;;;4.54;100.00;99292.84;6306955;20;3638927;-39
2023/11/20 00:38:45;;;;;;;;;65.33;49.67;;;;;4.69;100.00;99290.47;6309239;20;2878527;-38
2023/11/20 00:41:15;;;;;;;;;63.67;49.33;;;;;5.16;100.00;99291.00;6314784;20;2866939;-39
2023/11/20 00:43:45;;;;;;;;;61.00;45.00;;;;;4.71;100.00;99288.59;6315177;20;2873236;-49
2023/11/20 00:46:14;;;;;;;;;58.50;48.50;;;;;4.88;100.00;99278.06;6283611;20;2860844;-51
2023/11/20 00:48:44;;;;;;;;;57.00;48.00;;;;;4.61;100.00;99289.00;6280374;20;2855610;-48
2023/11/20 00:51:13;;;;;;;;;65.00;51.50;;;;;4.50;100.00;99296.59;6284506;20;2871100;-50
2023/11/20 00:53:43;;;;;;;;;64.67;49.33;;;;;4.93;100.00;99297.34;6283811;20;3621275;-50
2023/11/20 00:56:12;;;;;;;;;58.00;47.00;;;;;4.55;100.00;99288.41;6314275;20;2863848;-48
2023/11/20 00:58:41;;;;;;;;;60.50;48.00;;;;;4.40;100.00;99280.16;6283074;20;2851379;-48
2023/11/20 01:01:09;;;;;;;;;59.50;49.50;;;;;4.27;100.00;99294.06;6281560;20;2864914;-40
2023/11/20 01:03:39;;;;;;;;;65.50;51.50;;;;;4.51;100.00;99292.13;6285400;20;2863983;-41
2023/11/20 01:06:09;;;;;;;;;60.67;48.33;;;;;4.21;100.00;99307.56;6283535;20;3613963;-42
2023/11/20 01:08:39;;;;;;;;;62.67;49.00;;;;;4.65;100.00;99310.13;6314364;20;2872304;-43
2023/11/20 01:11:09;;;;;;;;;66.00;49.67;;;;;4.52;100.00;99315.13;6315111;20;2869267;-42
2023/11/20 01:13:40;;;;;;;;;65.67;49.67;;;;;3.72;100.00;99321.94;6313873;20;3636755;-42
2023/11/20 01:16:09;;;;;;;;;68.00;52.00;;;;;4.26;100.00;99332.16;6313843;20;2882653;-40
2023/11/20 01:18:38;;;;;;;;;56.50;48.00;;;;;4.28;100.00;99327.66;6283641;20;2860782;-42
2023/11/20 01:21:08;;;;;;;;;63.00;50.33;;;;;4.28;100.00;99333.81;6280551;20;2870046;-40
2023/11/20 01:23:38;;;;;;;;;63.67;48.67;;;;;3.69;100.00;99298.16;6314150;20;2868980;-43
2023/11/20 01:26:08;;;;;;;;;61.67;51.00;;;;;3.56;100.00;99304.03;6315242;20;2865894;-41
2023/11/20 01:28:37;;;;;;;;;58.00;48.00;;;;;3.57;100.00;99288.00;6314932;20;2846109;-41
2023/11/20 01:31:06;;;;;;;;;63.50;50.00;;;;;3.65;100.00;99263.81;6282733;20;2871115;-42
2023/11/20 01:33:34;;;;;;;;;55.00;44.00;;;;;4.31;100.00;99272.56;6277032;20;2499245;-43
2023/11/20 01:36:04;;;;;;;;;65.33;44.00;;;;;3.87;100.00;99270.00;6280430;20;2871159;-43
2023/11/20 01:38:32;;;;;;;;;58.50;47.50;;;;;3.94;100.00;99275.91;6312479;20;2499364;-40
2023/11/20 01:41:00;;;;;;;;;60.50;46.50;;;;;3.77;100.00;99273.97;6279712;20;2487956;-41
2023/11/20 01:43:30;;;;;;;;;61.67;45.67;;;;;3.63;100.00;99270.97;6280891;20;2877575;-42
2023/11/20 01:46:08;;;;;;;;;63.00;49.00;;;;;4.16;100.00;99295.38;6315853;20;2573184;-41
2023/11/20 01:48:38;;;;;;;;;58.00;48.50;;;;;4.28;100.00;99295.75;6283595;20;2857539;-41
2023/11/20 01:51:06;;;;;;;;;59.50;48.00;;;;;4.09;100.00;99296.53;6279666;20;2496172;-39
2023/11/20 01:53:40;;;;;;;;;62.67;47.00;;;;;3.99;100.00;99297.84;6278383;20;2887804;-38
2023/11/20 01:56:13;;;;;;;;;65.67;49.33;;;;;3.93;100.00;99298.09;6310088;20;2872173;-38
2023/11/20 01:58:43;;;;;;;;;65.00;48.00;;;;;3.67;100.00;99286.72;6311467;20;3647223;-38
2023/11/20 02:01:13;;;;;;;;;57.50;50.00;;;;;3.45;100.00;99283.19;6310357;20;2854495;-41
2023/11/20 02:03:42;;;;;;;;;66.00;49.50;;;;;3.29;100.00;99272.28;6282432;20;2879515;-38
2023/11/20 02:06:11;;;;;;;;;59.00;48.50;;;;;3.40;100.00;99271.91;6281714;20;2855588;-38
2023/11/20 02:08:40;;;;;;;;;67.00;48.00;;;;;3.33;100.00;99268.63;6281492;20;3638828;-38
2023/11/20 02:11:09;;;;;;;;;57.50;46.00;;;;;3.18;100.00;99264.75;6314161;20;2856663;-38
2023/11/20 02:13:39;;;;;;;;;49.00;42.00;;;;;3.63;100.00;99274.50;6279968;20;2864932;-39
2023/11/20 02:16:08;;;;;;;;;61.50;48.50;;;;;3.64;100.00;99289.50;6283081;20;2871163;-38
2023/11/20 02:18:37;;;;;;;;;57.50;46.00;;;;;3.33;100.00;99273.91;6279722;20;2854421;-38
2023/11/20 02:21:07;;;;;;;;;58.50;45.50;;;;;3.74;100.00;99269.63;6279557;20;2850287;-39
2023/11/20 02:23:36;;;;;;;;;62.50;47.50;;;;;3.38;100.00;99257.81;6271422;20;2864268;-39
2023/11/20 02:26:51;;;;;;;;;59.50;46.50;;;;;3.87;100.00;99255.84;6280716;20;2861703;-39
2023/11/20 02:29:32;;;;;;;;;60.50;47.00;;;;;4.21;100.00;99254.44;6280741;20;2859665;-39
2023/11/20 02:32:01;;;;;;;;;52.50;45.50;;;;;4.21;100.00;99241.16;6280795;20;2854505;-39
2023/11/20 02:34:31;;;;;;;;;70.67;51.00;;;;;3.73;100.00;99251.97;6279241;20;3645147;-39
2023/11/20 02:37:01;;;;;;;;;65.50;50.50;;;;;3.89;100.00;99256.66;6311087;20;2872201;-39
2023/11/20 02:39:30;;;;;;;;;59.00;47.50;;;;;3.96;100.00;99252.81;6281386;20;2856535;-39
2023/11/20 02:42:00;;;;;;;;;64.33;50.33;;;;;4.20;100.00;99252.72;6281689;20;2862782;-42
2023/11/20 02:44:29;;;;;;;;;74.33;58.00;;;;;4.22;100.00;99249.06;6312616;20;2881619;-39
2023/11/20 02:47:00;;;;;;;;;67.00;54.00;;;;;4.09;100.00;99240.75;6313111;20;2851402;-39
2023/11/20 02:49:29;;;;;;;;;65.50;52.50;;;;;4.24;100.00;99243.66;6309976;20;2875293;-41
2023/11/20 02:51:58;;;;;;;;;68.67;53.00;;;;;4.13;100.00;99244.13;6280437;20;2881491;-42
2023/11/20 02:54:28;;;;;;;;;62.00;50.00;;;;;4.11;100.00;99246.88;6307715;20;2868511;-41
2023/11/20 02:56:58;;;;;;;;;66.67;54.33;;;;;3.72;100.00;99250.25;6309191;20;2868090;-43
2023/11/20 02:59:28;;;;;;;;;72.00;54.67;;;;;4.06;100.00;99258.63;6308997;20;3631585;-42
2023/11/20 03:01:58;;;;;;;;;70.00;54.67;;;;;4.37;100.00;99258.16;6308368;20;3614813;-43
2023/11/20 03:04:27;;;;;;;;;70.67;52.00;;;;;3.67;100.00;99249.56;6304222;20;2873484;-42
2023/11/20 03:06:58;;;;;;;;;66.33;54.67;;;;;3.65;100.00;99245.25;6310470;20;2883720;-44
2023/11/20 03:09:27;;;;;;;;;66.00;51.33;;;;;3.77;100.00;99233.28;6308642;20;2870044;-48
2023/11/20 03:11:57;;;;;;;;;61.00;47.00;;;;;3.87;100.00;99253.19;6306440;20;2871247;-51
2023/11/20 03:14:26;;;;;;;;;61.00;49.00;;;;;3.78;100.00;99256.22;6304369;20;2858624;-47
2023/11/20 03:16:56;;;;;;;;;59.00;48.00;;;;;3.99;100.00;99257.13;6279691;20;2858658;-48
2023/11/20 03:19:25;;;;;;;;;79.67;61.00;;;;;3.84;100.00;99263.94;6310708;20;3643028;-49
2023/11/20 03:21:56;;;;;;;;;73.67;56.67;;;;;4.04;100.00;99256.00;6311045;20;3628416;-48
2023/11/20 03:24:25;;;;;;;;;63.33;48.00;;;;;3.78;100.00;99266.84;6312308;20;2871192;-48
2023/11/20 03:26:57;;;;;;;;;63.33;50.33;;;;;3.92;100.00;99269.78;6311029;20;3637868;-46
2023/11/20 03:29:26;;;;;;;;;58.00;48.00;;;;;3.94;100.00;99265.28;6311501;20;2864970;-47
2023/11/20 03:31:55;;;;;;;;;47.50;43.00;;;;;3.97;100.00;99259.84;6278958;20;2865980;-48
2023/11/20 03:34:24;;;;;;;;;49.00;44.00;;;;;3.91;100.00;99260.09;6279268;20;2859813;-48
2023/11/20 03:36:53;;;;;;;;;59.00;47.50;;;;;3.77;100.00;99252.72;6279165;20;2851340;-47
2023/11/20 03:39:22;;;;;;;;;60.50;45.00;;;;;3.71;100.00;99253.84;6281639;20;2867078;-48
2023/11/20 03:41:51;;;;;;;;;63.67;52.00;;;;;3.29;100.00;99229.84;6279765;20;2866945;-47
2023/11/20 03:44:21;;;;;;;;;106.33;96.00;;;;;3.41;100.00;99233.81;6311807;20;3677408;-48
2023/11/20 03:46:53;;;;;;;;;89.00;66.00;;;;;3.59;100.00;99232.22;6275621;20;2784789;-49
2023/11/20 03:49:22;;;;;;;;;74.33;57.00;;;;;3.57;100.00;99229.63;6276706;20;3629529;-48
2023/11/20 03:51:52;;;;;;;;;81.00;59.00;;;;;3.66;100.00;99223.97;6311271;20;3649241;-47
2023/11/20 03:54:22;;;;;;;;;67.00;53.67;;;;;3.23;100.00;99220.34;6307370;20;2865082;-50
2023/11/20 03:56:51;;;;;;;;;67.33;53.33;;;;;3.53;100.00;99209.47;6311925;20;2874259;-47
2023/11/20 03:59:20;;;;;;;;;65.50;52.50;;;;;3.35;100.00;99223.47;6310995;20;2873303;-49
2023/11/20 04:01:50;;;;;;;;;69.33;55.00;;;;;3.17;100.00;99214.44;6274390;20;2871134;-51
2023/11/20 04:04:20;;;;;;;;;77.00;54.33;;;;;2.96;100.00;99209.03;6308918;20;3647135;-49
2023/11/20 04:06:49;;;;;;;;;74.00;57.00;;;;;3.17;100.00;99209.97;6311822;20;3633607;-48
2023/11/20 04:09:19;;;;;;;;;75.00;58.33;;;;;2.79;100.00;99204.38;6310506;20;3637830;-49
2023/11/20 04:11:49;;;;;;;;;78.00;57.00;;;;;2.55;100.00;99195.53;6309962;20;3651424;-50
2023/11/20 04:14:19;;;;;;;;;63.00;47.67;;;;;3.02;100.00;99202.63;6307484;20;2878572;-52
2023/11/20 04:16:49;;;;;;;;;68.67;53.33;;;;;3.29;100.00;99192.69;6313080;20;3609658;-48
2023/11/20 04:19:19;;;;;;;;;67.00;52.67;;;;;3.03;100.00;99178.69;6315619;20;2866986;-48
2023/11/20 04:21:48;;;;;;;;;66.50;54.50;;;;;2.80;100.00;99178.72;6315815;20;2861854;-50
2023/11/20 04:24:19;;;;;;;;;83.00;59.67;;;;;2.61;100.00;99178.56;6282745;20;3658578;-49
2023/11/20 04:26:47;;;;;;;;;70.50;56.50;;;;;3.07;100.00;99187.41;6313082;20;2862773;-51
2023/11/20 04:29:17;;;;;;;;;72.00;49.00;;;;;3.08;100.00;99179.38;6284790;20;3638759;-48
2023/11/20 04:31:47;;;;;;;;;69.67;52.67;;;;;2.90;100.00;99185.41;6312509;20;2872305;-51
2023/11/20 04:34:17;;;;;;;;;66.00;53.33;;;;;2.84;100.00;99175.91;6310804;20;2873235;-47
2023/11/20 04:36:46;;;;;;;;;69.33;53.67;;;;;2.95;100.00;99182.56;6313674;20;2874442;-48
2023/11/20 04:39:16;;;;;;;;;72.00;52.67;;;;;2.53;100.00;99194.75;6315943;20;3636079;-49
2023/11/20 04:41:45;;;;;;;;;67.00;53.50;;;;;2.98;100.00;99203.69;6315018;20;2855529;-48
2023/11/20 04:44:14;;;;;;;;;63.33;50.33;;;;;3.09;100.00;99193.50;6281824;20;2874393;-49
2023/11/20 04:46:43;;;;;;;;;66.00;53.50;;;;;3.04;100.00;99200.78;6317353;20;2872253;-50
2023/11/20 04:49:12;;;;;;;;;66.00;54.50;;;;;2.92;100.00;99203.88;6282567;20;2865968;-51
2023/11/20 04:51:42;;;;;;;;;66.33;52.33;;;;;3.06;100.00;99212.19;6283412;20;2872362;-50
2023/11/20 04:54:11;;;;;;;;;68.00;52.00;;;;;2.89;100.00;99204.88;6315230;20;2871633;-49
2023/11/20 04:56:44;;;;;;;;;67.00;52.33;;;;;3.30;100.00;99211.22;6284236;20;2860819;-49
2023/11/20 04:59:13;;;;;;;;;64.50;51.00;;;;;3.51;100.00;99208.66;6317393;20;2862739;-51
2023/11/20 05:01:41;;;;;;;;;65.00;54.00;;;;;3.26;100.00;99199.00;6284008;20;2871096;-49
2023/11/20 05:04:11;;;;;;;;;76.00;57.50;;;;;3.12;100.00;99196.03;6284130;20;3523276;-51
2023/11/20 05:06:40;;;;;;;;;70.50;57.50;;;;;3.27;100.00;99200.75;6313922;20;2871231;-53
2023/11/20 05:09:10;;;;;;;;;72.67;56.33;;;;;3.59;100.00;99205.69;6280063;20;2889059;-47
2023/11/20 05:11:41;;;;;;;;;68.50;55.00;;;;;3.41;100.00;99200.19;6312020;20;2857583;-52
2023/11/20 05:14:10;;;;;;;;;82.67;63.00;;;;;3.37;100.00;99205.66;6283111;20;3635693;-49
2023/11/20 05:16:40;;;;;;;;;82.00;64.33;;;;;3.42;100.00;99198.38;6313942;20;2887866;-51
2023/11/20 05:19:10;;;;;;;;;80.67;61.33;;;;;3.63;100.00;99207.28;6313199;20;3638872;-48
2023/11/20 05:21:44;;;;;;;;;77.67;59.33;;;;;3.72;100.00;99207.75;6314151;20;2886558;-51
2023/11/20 05:24:14;;;;;;;;;81.00;61.67;;;;;3.77;100.00;99198.75;6315761;20;3647152;-51
2023/11/20 05:26:44;;;;;;;;;71.00;59.67;;;;;3.84;100.00;99197.56;6311716;20;2878488;-53
2023/11/20 05:29:14;;;;;;;;;83.33;58.00;;;;;3.97;100.00;99212.03;6314275;20;3662801;-50
2023/11/20 05:31:44;;;;;;;;;72.00;56.33;;;;;3.69;100.00;99207.03;6278115;20;3629449;-49
2023/11/20 05:34:14;;;;;;;;;65.00;50.00;;;;;3.80;100.00;99198.63;6311005;20;2872239;-49
2023/11/20 05:36:43;;;;;;;;;77.00;58.00;;;;;3.63;100.00;99186.88;6281002;20;3634653;-46
2023/11/20 05:39:13;;;;;;;;;65.67;50.33;;;;;4.22;100.00;99200.38;6311906;20;2868006;-49
2023/11/20 05:41:43;;;;;;;;;68.50;55.00;;;;;4.61;100.00;99201.28;6312710;20;2869127;-47
2023/11/20 05:44:16;;;;;;;;;66.67;55.67;;;;;4.07;100.00;99200.09;6278291;20;2871277;-51
2023/11/20 05:46:45;;;;;;;;;76.67;58.33;;;;;3.50;100.00;99202.47;6315675;20;3632581;-47
2023/11/20 05:49:15;;;;;;;;;72.67;56.00;;;;;2.83;100.00;99200.66;6311679;20;2878511;-44
2023/11/20 05:51:45;;;;;;;;;66.00;51.00;;;;;2.97;100.00;99208.09;6312599;20;2870283;-48
2023/11/20 05:54:15;;;;;;;;;64.67;49.00;;;;;3.53;100.00;99212.09;6309757;20;2880666;-46
2023/11/20 05:56:47;;;;;;;;;60.67;49.00;;;;;2.89;100.00;99204.00;6314120;20;2871160;-45
2023/11/20 05:59:16;;;;;;;;;51.00;44.00;;;;;2.93;100.00;99205.63;6313330;20;2854526;-49
2023/11/20 06:01:45;;;;;;;;;63.00;49.00;;;;;3.56;100.00;99206.66;6278390;20;2871197;-46
2023/11/20 06:04:14;;;;;;;;;57.50;47.00;;;;;3.24;100.00;99207.97;6282778;20;2855517;-49
2023/11/20 06:06:44;;;;;;;;;58.50;48.00;;;;;3.67;100.00;99212.41;6282327;20;2860813;-40
2023/11/20 06:09:13;;;;;;;;;65.00;50.00;;;;;3.70;100.00;99198.13;6283021;20;2759612;-40
2023/11/20 06:11:43;;;;;;;;;59.00;45.00;;;;;3.81;100.00;99208.31;6309336;20;2500397;-40
2023/11/20 06:14:12;;;;;;;;;58.50;46.00;;;;;3.52;100.00;99215.66;6280171;20;2842034;-40
2023/11/20 06:16:41;;;;;;;;;60.50;46.00;;;;;3.28;100.00;99221.03;6282910;20;2861790;-39
2023/11/20 06:19:10;;;;;;;;;61.50;49.00;;;;;3.36;100.00;99230.47;6278953;20;2874238;-39
2023/11/20 06:21:49;;;;;;;;;68.67;53.00;;;;;3.15;100.00;99238.34;6283160;20;2880567;-46
2023/11/20 06:24:20;;;;;;;;;61.67;46.67;;;;;3.09;100.00;99233.28;6310744;20;2870151;-49
2023/11/20 06:26:49;;;;;;;;;61.50;48.50;;;;;3.20;100.00;99231.06;6311671;20;2858621;-48
2023/11/20 06:29:19;;;;;;;;;65.00;48.00;;;;;3.12;100.00;99235.81;6280136;20;2878398;-49
2023/11/20 06:31:48;;;;;;;;;62.50;50.50;;;;;2.95;100.00;99238.25;6310601;20;2873208;-48
2023/11/20 06:34:17;;;;;;;;;65.50;53.00;;;;;3.05;100.00;99231.66;6279459;20;2867025;-48
2023/11/20 06:36:46;;;;;;;;;62.00;49.50;;;;;3.13;100.00;99234.88;6278014;20;2866984;-47
2023/11/20 06:39:15;;;;;;;;;67.50;52.00;;;;;2.99;100.00;99235.41;6281178;20;2860759;-48
2023/11/20 06:41:45;;;;;;;;;64.00;51.00;;;;;3.01;100.00;99238.03;6279481;20;2881623;-47
2023/11/20 06:44:14;;;;;;;;;64.00;50.50;;;;;2.88;100.00;99239.41;6312831;20;2867008;-47
2023/11/20 06:46:44;;;;;;;;;65.33;51.00;;;;;3.17;100.00;99236.50;6279215;20;2879463;-44
2023/11/20 06:49:12;;;;;;;;;64.00;52.00;;;;;3.40;100.00;99242.72;6313101;20;2751325;-48
2023/11/20 06:51:43;;;;;;;;;64.50;50.50;;;;;3.22;100.00;99245.16;6309830;20;2877321;-45
2023/11/20 06:54:12;;;;;;;;;63.50;51.50;;;;;3.81;100.00;99242.81;6278431;20;2862732;-45
2023/11/20 06:56:42;;;;;;;;;69.00;56.33;;;;;5.97;100.00;99235.66;6278031;20;2870198;-47
2023/11/20 06:59:12;;;;;;;;;87.00;66.00;;;;;4.28;100.00;99234.66;6312520;20;3630454;-50
2023/11/20 07:01:46;;;;;;;;;103.00;89.33;;;;;4.28;100.00;99240.81;6311901;20;3685651;-48
2023/11/20 07:04:18;;;;;;;;;94.33;76.67;;;;;5.77;100.00;99238.44;6278529;20;3654452;-49
2023/11/20 07:06:49;;;;;;;;;87.00;65.33;;;;;4.99;100.00;99238.53;6279130;20;3641919;-47
2023/11/20 07:09:25;;;;;;;;;76.00;57.33;;;;;5.34;100.00;99241.34;6310472;20;3647138;-49
2023/11/20 07:11:55;;;;;;;;;77.00;57.00;;;;;5.49;100.00;99245.94;6308442;20;3636120;-50
2023/11/20 07:14:24;;;;;;;;;80.00;60.67;;;;;5.54;100.00;99252.88;6309839;20;3654441;-51
2023/11/20 07:16:54;;;;;;;;;73.67;57.33;;;;;5.73;100.00;99243.03;6309785;20;3636764;-52
2023/11/20 07:19:24;;;;;;;;;71.00;55.00;;;;;5.97;100.00;99253.47;6312085;20;3630463;-48
2023/11/20 07:21:54;;;;;;;;;72.00;56.00;;;;;6.33;100.00;99243.59;6310292;20;2875857;-47
2023/11/20 07:24:25;;;;;;;;;74.67;54.67;;;;;6.48;100.00;99241.09;6312580;20;3650269;-48
2023/11/20 07:26:54;;;;;;;;;59.00;46.33;;;;;7.04;100.00;99238.06;6277338;20;2874237;-51
2023/11/20 07:29:24;;;;;;;;;64.33;52.00;;;;;7.24;100.00;99242.34;6313545;20;2877442;-50
2023/11/20 07:31:54;;;;;;;;;68.67;53.67;;;;;7.20;100.00;99237.25;6310669;20;3635676;-52
2023/11/20 07:34:23;;;;;;;;;60.67;47.67;;;;;7.31;100.00;99241.97;6308883;20;2868311;-48
2023/11/20 07:36:56;;;;;;;;;57.00;46.67;;;;;7.29;100.00;99228.69;6309944;20;2852297;-52
2023/11/20 07:39:26;;;;;;;;;60.00;48.33;;;;;7.45;100.00;99223.38;6311006;20;3606548;-51
2023/11/20 07:41:56;;;;;;;;;55.33;41.67;;;;;6.98;100.00;99218.88;6309783;20;3627381;-48
2023/11/20 07:44:26;;;;;;;;;59.33;45.00;;;;;7.03;100.00;99230.16;6306797;20;2867082;-49
2023/11/20 07:46:56;;;;;;;;;61.00;46.33;;;;;7.21;100.00;99213.13;6309505;20;2862886;-50
2023/11/20 07:49:27;;;;;;;;;59.00;48.33;;;;;7.54;100.00;99222.00;6314163;20;2856596;-49
2023/11/20 07:51:57;;;;;;;;;61.00;48.00;;;;;7.61;100.00;99218.91;6316477;20;2876543;-49
2023/11/20 07:54:26;;;;;;;;;56.50;46.50;;;;;7.53;100.00;99215.81;6316062;20;2844116;-50
2023/11/20 07:56:56;;;;;;;;;61.67;47.67;;;;;7.37;100.00;99226.50;6282592;20;2865938;-51
2023/11/20 07:59:25;;;;;;;;;54.67;44.33;;;;;7.14;100.00;99235.78;6316339;20;2858594;-49
2023/11/20 08:01:54;;;;;;;;;58.00;46.50;;;;;7.38;100.00;99232.69;6316740;20;2851400;-48
2023/11/20 08:04:23;;;;;;;;;57.50;47.00;;;;;7.08;100.00;99238.75;6285321;20;2864855;-50
2023/11/20 08:06:52;;;;;;;;;58.50;48.00;;;;;7.24;100.00;99237.00;6285050;20;2854448;-50
2023/11/20 08:09:21;;;;;;;;;58.50;48.00;;;;;7.19;100.00;99236.38;6284715;20;2854396;-50
2023/11/20 08:11:50;;;;;;;;;54.50;44.50;;;;;7.32;100.00;99233.00;6286457;20;2844045;-48
2023/11/20 08:14:19;;;;;;;;;58.00;45.33;;;;;7.81;100.00;99227.56;6285609;20;3625338;-49
2023/11/20 08:16:48;;;;;;;;;52.50;44.00;;;;;8.18;100.00;99217.41;6314561;20;2851339;-46
2023/11/20 08:19:18;;;;;;;;;52.33;44.33;;;;;8.40;100.00;99219.69;6285668;20;3604465;-50
2023/11/20 08:21:51;;;;;;;;;56.00;44.33;;;;;8.41;100.00;99218.75;6313492;20;2864032;-49
2023/11/20 08:24:21;;;;;;;;;62.00;49.67;;;;;8.36;100.00;99237.72;6317159;20;2867039;-51
2023/11/20 08:26:51;;;;;;;;;57.67;48.00;;;;;8.42;100.00;99231.16;6317887;20;2866032;-50
2023/11/20 08:29:21;;;;;;;;;52.67;43.67;;;;;8.06;100.00;99235.91;6318842;20;3608721;-48
2023/11/20 08:31:50;;;;;;;;;59.67;46.33;;;;;8.09;100.00;99246.41;6315058;20;3628411;-50
2023/11/20 08:34:19;;;;;;;;;50.00;43.00;;;;;7.89;100.00;99254.72;6319120;20;2855492;-52
2023/11/20 08:36:51;;;;;;;;;53.00;44.00;;;;;7.80;100.00;99249.91;6285371;20;2863912;-48
2023/11/20 08:39:24;;;;;;;;;56.67;42.33;;;;;7.86;100.00;99250.41;6284346;20;2877459;-53
2023/11/20 08:41:55;;;;;;;;;48.50;40.00;;;;;7.84;100.00;99243.44;6316686;20;2845114;-54
2023/11/20 08:44:24;;;;;;;;;52.00;43.00;;;;;7.90;100.00;99246.63;6288390;20;2829681;-53
2023/11/20 08:46:53;;;;;;;;;47.50;40.00;;;;;8.16;100.00;99241.56;6287365;20;2858739;-49
2023/11/20 08:49:22;;;;;;;;;56.00;43.33;;;;;8.23;100.00;99244.75;6285918;20;3622248;-52
2023/11/20 08:51:52;;;;;;;;;51.00;43.00;;;;;8.61;100.00;99239.81;6317331;20;2856534;-49
2023/11/20 08:54:32;;;;;;;;;39.00;36.00;;;;;8.47;100.00;99234.41;6286249;20;2857560;-48
2023/11/20 08:57:01;;;;;;;;;51.00;39.50;;;;;8.61;100.00;99236.25;6284358;20;2855490;-47
2023/11/20 08:59:33;;;;;;;;;48.00;40.50;;;;;8.65;100.00;99237.81;6287326;20;2857715;-48
2023/11/20 09:02:04;;;;;;;;;51.00;42.00;;;;;8.74;100.00;99231.88;6286922;20;2861731;-52
2023/11/20 09:04:33;;;;;;;;;47.50;38.50;;;;;8.61;100.00;99230.91;6286558;20;2832613;-46
2023/11/20 09:07:02;;;;;;;;;48.67;38.33;;;;;8.56;100.00;99234.72;6285795;20;3613823;-45
2023/11/20 09:09:31;;;;;;;;;47.50;40.00;;;;;8.44;100.00;99230.13;6318024;20;2847163;-46
2023/11/20 09:12:02;;;;;;;;;42.00;31.67;;;;;8.55;100.00;99233.00;6284557;20;3625261;-45
2023/11/20 09:14:33;;;;;;;;;46.67;38.00;;;;;8.65;100.00;99238.66;6315327;20;3603575;-46
2023/11/20 09:17:02;;;;;;;;;46.00;39.00;;;;;8.69;100.00;99244.66;6317983;20;2866946;-47
2023/11/20 09:19:30;;;;;;;;;48.00;40.00;;;;;8.45;100.00;99245.22;6285113;20;2836737;-46
2023/11/20 09:21:59;;;;;;;;;54.50;43.50;;;;;8.61;100.00;99242.50;6283845;20;2857612;-46
2023/11/20 09:24:30;;;;;;;;;48.67;40.33;;;;;8.67;100.00;99241.25;6286975;20;2855590;-49
2023/11/20 09:27:00;;;;;;;;;63.00;46.33;;;;;8.60;100.00;99229.19;6316633;20;3636722;-47
2023/11/20 09:29:29;;;;;;;;;54.50;43.50;;;;;8.85;100.00;99224.06;6317581;20;2860863;-49
2023/11/20 09:31:58;;;;;;;;;52.00;45.00;;;;;8.87;100.00;99221.28;6284291;20;2852393;-47
2023/11/20 09:34:29;;;;;;;;;55.33;43.67;;;;;9.06;100.00;99218.31;6283543;20;2867029;-46
2023/11/20 09:36:59;;;;;;;;;50.00;37.67;;;;;9.18;100.00;99210.34;6315697;20;2874418;-47
2023/11/20 09:39:27;;;;;;;;;52.50;43.00;;;;;9.07;100.00;99212.84;6310601;20;2452366;-45
2023/11/20 09:41:56;;;;;;;;;50.00;40.00;;;;;9.13;100.00;99217.81;6283247;20;2860696;-46
2023/11/20 09:44:30;;;;;;;;;47.00;40.00;;;;;9.55;100.00;99212.50;6283141;20;2849309;-50
2023/11/20 09:46:59;;;;;;;;;53.00;42.00;;;;;9.69;100.00;99212.47;6282259;20;2856584;-46
2023/11/20 09:49:33;;;;;;;;;45.00;36.33;;;;;9.63;100.00;99204.81;6283466;20;2868111;-52
2023/11/20 09:52:07;;;;;;;;;41.67;36.00;;;;;9.94;100.00;99203.66;6312220;20;2855673;-52
2023/11/20 09:54:41;;;;;;;;;36.00;34.50;;;;;10.02;100.00;99212.03;6317974;20;2861769;-51
2023/11/20 09:57:09;;;;;;;;;42.50;38.00;;;;;10.03;100.00;99202.16;6283051;20;2491945;-47
2023/11/20 09:59:39;;;;;;;;;45.00;36.00;;;;;10.05;100.00;99200.25;6284284;20;2860725;-48
2023/11/20 10:02:09;;;;;;;;;47.00;36.00;;;;;10.30;100.00;99205.72;6315124;20;3632612;-50
2023/11/20 10:04:41;;;;;;;;;42.67;36.00;;;;;10.43;100.00;99191.47;6282337;20;2854532;-48
2023/11/20 10:07:16;;;;;;;;;41.33;34.67;;;;;10.48;100.00;99195.53;6317007;20;3614874;-48
2023/11/20 10:09:52;;;;;;;;;38.33;32.00;;;;;10.72;100.00;99194.81;6285467;20;3606580;-49
2023/11/20 10:12:23;;;;;;;;;36.33;33.00;;;;;10.80;100.00;99189.75;6279944;20;3599300;-48
2023/11/20 10:14:54;;;;;;;;;33.33;30.00;;;;;10.77;100.00;99181.91;6281518;20;2850294;-52
2023/11/20 10:17:23;;;;;;;;;48.50;41.50;;;;;11.82;97.63;99181.44;6311747;20;2852416;-49
2023/11/20 10:19:53;;;;;;;;;52.00;40.00;;;;;11.74;97.90;99173.09;6282760;20;3633614;-47
2023/11/20 10:22:26;;;;;;;;;39.67;34.00;;;;;12.15;95.45;99176.34;6312804;20;3597130;-47
2023/11/20 10:24:55;;;;;;;;;40.33;34.33;;;;;12.20;94.14;99172.31;6284348;20;3578453;-49
2023/11/20 10:27:31;;;;;;;;;38.33;32.33;;;;;12.24;94.88;99168.41;6282331;20;3624204;-42
2023/11/20 10:30:00;;;;;;;;;41.33;33.00;;;;;12.04;94.56;99169.06;6315570;20;3611818;-42
2023/11/20 10:32:30;;;;;;;;;41.33;34.00;;;;;12.40;95.51;99176.16;6282177;20;2865016;-42
2023/11/20 10:35:19;;;;;;;;;42.33;33.00;;;;;12.33;95.25;99166.00;6314203;20;3607669;-43
2023/11/20 10:38:03;;;;;;;;;32.00;31.00;;;;;12.47;95.69;99158.53;6284106;20;3595074;-42
2023/11/20 10:40:32;;;;;;;;;23.00;21.33;;;;;12.44;93.49;99161.47;6317227;20;3572252;-43
2023/11/20 10:43:01;;;;;;;;;17.00;14.00;;;;;12.57;92.80;99155.16;6312079;20;2815906;-43
2023/11/20 10:45:33;;;;;;;;;10.00;8.33;;;;;12.90;90.44;99152.47;6279981;20;2755523;-39
2023/11/20 10:48:02;;;;;;;;;8.00;6.00;;;;;13.09;88.87;99151.00;6315590;20;2744036;-41
2023/11/20 10:50:37;;;;;;;;;11.20;7.80;;;;;12.82;88.52;99146.84;6305654;20;2747195;-39
2023/11/20 10:53:07;;;;;;;;;9.00;9.00;;;;;12.96;86.87;99146.59;6316826;20;2729568;-41
2023/11/20 10:55:50;;;;;;;;;6.57;6.14;;;;;13.53;85.38;99139.31;6327862;20;3453493;-40
2023/11/20 10:58:20;;;;;;;;;7.40;7.00;;;;;13.59;85.02;99143.34;6340474;20;2749263;-39
2023/11/20 11:00:49;;;;;;;;;8.00;6.50;;;;;13.86;83.50;99140.19;6315514;20;2728432;-39
2023/11/20 11:03:17;;;;;;;;;6.00;6.00;;;;;14.22;82.21;99136.22;6284538;20;2743098;-40
2023/11/20 11:05:51;;;;;;;;;11.00;8.00;;;;;13.95;82.41;99135.84;6286143;20;2760766;-39
2023/11/20 11:08:20;;;;;;;;;9.00;9.00;;;;;13.99;83.35;99129.22;6286310;20;2735758;-39
2023/11/20 11:10:49;;;;;;;;;9.50;9.00;;;;;13.84;82.77;99128.66;6283549;20;2782640;-47
2023/11/20 11:13:21;;;;;;;;;12.33;9.67;;;;;13.61;82.66;99127.88;6281793;20;3492985;-45
2023/11/20 11:15:53;;;;;;;;;17.33;12.00;;;;;13.40;82.76;99119.72;6314162;20;3567999;-46